This is the latest recevied weather packets stored in our database for station/object WC4PEM-10. If no packets are shown the sender has not sent any weather packets the latest 1 day(s).
| Time | Temp. | Humidity | Pressure | Rain* | Wind** | Luminosity | Snow |
|---|---|---|---|---|---|---|---|
| 1836274827 | 22.78° C | 92% | 1015.7 hPa | 0 mm | 1.34 m/s, 45° | - | - |
| 1836274608 | 22.78° C | 91% | 1015.9 hPa | 0 mm | 1.34 m/s, 59° | - | - |
| 1836274527 | 22.78° C | 91% | 1015.9 hPa | 0 mm | 1.34 m/s, 59° | - | - |
| 1836274377 | 22.78° C | 92% | 1015.9 hPa | 0 mm | 0.89 m/s, 51° | - | - |
| 1836274227 | 22.78° C | 92% | 1015.9 hPa | 0 mm | 0.89 m/s, 56° | - | - |
| 1836273927 | 22.78° C | 91% | 1016 hPa | 0 mm | 1.34 m/s, 72° | - | - |
| 1836273883 | 22.78° C | 91% | 1016 hPa | 0 mm | 1.34 m/s, 85° | - | - |
| 1778052086 | 17.22° C | 94% | 1015.3 hPa | 0 mm | 0.45 m/s, 119° | - | - |
| 1778051786 | 17.22° C | 94% | 1015.4 hPa | 0 mm | 0 m/s | - | - |
| 1778051523 | 17.22° C | 95% | 1015.4 hPa | 0 mm | 0.45 m/s, 178° | - | - |
| 1778051486 | 17.22° C | 94% | 1015.6 hPa | 0 mm | 0.45 m/s, 93° | - | - |
| 1778051186 | 17.22° C | 95% | 1015.4 hPa | 0 mm | 0.45 m/s, 178° | - | - |
| 1778050887 | 16.67° C | 94% | 1015.6 hPa | 0 mm | 0.45 m/s, 205° | - | - |
| 1778050586 | 16.67° C | 93% | 1015.4 hPa | 0 mm | 0.45 m/s, 93° | - | - |
| 1778050286 | 16.67° C | 93% | 1015.4 hPa | 0 mm | 0 m/s | - | - |
| 1778050093 | 16.67° C | 92% | 1015.7 hPa | 0 mm | 0.45 m/s, 93° | - | - |
| 1778049986 | 16.67° C | 93% | 1015.6 hPa | 0 mm | 0 m/s | - | - |
| 1778049774 | 16.67° C | 92% | 1015.7 hPa | 0 mm | 0.45 m/s, 93° | - | - |
| 1778049686 | 16.67° C | 92% | 1015.7 hPa | 0 mm | 0.45 m/s, 93° | - | - |
| 1778049386 | 16.67° C | 92% | 1015.5 hPa | 0 mm | 0.45 m/s, 83° | - | - |
| 1778049092 | 16.67° C | 92% | 1015.7 hPa | 0 mm | 0.45 m/s, 34° | - | - |
| 1778049086 | 16.67° C | 92% | 1015.6 hPa | 0 mm | 0.45 m/s, 34° | - | - |
| 1778048786 | 16.67° C | 92% | 1015.7 hPa | 0 mm | 0.45 m/s, 34° | - | - |
| 1778048592 | 17.22° C | 91% | 1015.8 hPa | 0 mm | 0.89 m/s, 86° | - | - |
| 1778048486 | 17.22° C | 92% | 1015.7 hPa | 0 mm | 0.45 m/s, 51° | - | - |
* Rain latest hour (hover to see other rain measurements)
** Current wind speed in m/s (hover to see current wind gust speed)